createdAt,value
2018-03-02T00:00:14.609Z,35.78
2018-03-02T00:02:46.036Z,35.77
2018-03-02T00:05:17.498Z,35.94
2018-03-02T00:07:48.736Z,35.99
2018-03-02T00:10:31.574Z,36.25
2018-03-02T00:13:05.703Z,36.45
2018-03-02T00:15:38.801Z,36.52
2018-03-02T00:18:10.239Z,36.71
2018-03-02T00:20:41.464Z,36.90
2018-03-02T00:23:16.761Z,36.89
2018-03-02T00:25:48.031Z,37.01
2018-03-02T00:28:20.247Z,37.25
2018-03-02T00:30:54.159Z,37.35
2018-03-02T00:33:25.172Z,37.47
2018-03-02T00:35:56.736Z,37.63
2018-03-02T00:38:28.838Z,37.66
2018-03-02T00:41:00.627Z,37.68
2018-03-02T00:43:36.141Z,37.77
2018-03-02T00:46:09.618Z,37.86
2018-03-02T00:48:41.657Z,37.95
2018-03-02T00:51:13.390Z,38.05
2018-03-02T00:53:45.489Z,37.96
2018-03-02T00:56:17.705Z,38.03
2018-03-02T00:58:49.310Z,37.93
2018-03-02T01:01:22.090Z,37.63
2018-03-02T01:03:54.171Z,37.73
2018-03-02T01:06:32.030Z,37.86
2018-03-02T01:09:04.274Z,37.99
2018-03-02T01:11:36.068Z,38.05
2018-03-02T01:14:08.136Z,38.12
2018-03-02T01:17:24.661Z,38.03
2018-03-02T01:20:00.987Z,38.11
2018-03-02T01:22:32.690Z,38.13
2018-03-02T01:25:05.080Z,38.05
2018-03-02T01:27:36.451Z,38.17
2018-03-02T01:30:10.089Z,38.10
2018-03-02T01:32:44.457Z,38.24
2018-03-02T01:35:16.157Z,38.43
2018-03-02T01:37:47.389Z,38.60
2018-03-02T01:40:19.222Z,38.68
2018-03-02T01:42:50.778Z,38.64
2018-03-02T01:45:23.485Z,38.71
2018-03-02T01:47:57.009Z,38.80
2018-03-02T01:50:30.539Z,38.79
2018-03-02T01:53:02.330Z,38.76
2018-03-02T01:55:34.736Z,38.85
2018-03-02T01:58:08.098Z,38.86
2018-03-02T02:00:41.198Z,38.94
2018-03-02T02:03:13.368Z,38.90
2018-03-02T02:05:57.972Z,38.97
2018-03-02T02:14:01.169Z,38.87
2018-03-02T02:16:36.388Z,38.86
2018-03-02T02:19:09.474Z,38.83
2018-03-02T02:21:41.239Z,38.91
2018-03-02T02:24:12.708Z,38.99
2018-03-02T02:26:44.772Z,38.98
2018-03-02T02:29:16.079Z,39.02
2018-03-02T02:31:47.889Z,38.99
2018-03-02T02:34:19.025Z,39.07
2018-03-02T02:36:49.976Z,39.25
2018-03-02T02:41:56.600Z,39.58
2018-03-02T02:44:29.079Z,39.54
2018-03-02T02:47:00.417Z,39.55
2018-03-02T02:49:31.203Z,39.50
2018-03-02T02:52:02.274Z,39.57
2018-03-02T02:54:33.249Z,39.67
2018-03-02T02:57:04.283Z,39.69
2018-03-02T02:59:42.455Z,39.51
2018-03-02T03:02:13.911Z,39.59
2018-03-02T03:04:45.175Z,39.74
2018-03-02T03:07:16.574Z,39.70
2018-03-02T03:10:01.134Z,39.89
2018-03-02T03:12:42.844Z,39.99
2018-03-02T03:15:21.517Z,40.23
2018-03-02T03:17:53.402Z,39.97
2018-03-02T03:20:24.502Z,40.03
2018-03-02T03:22:55.724Z,40.27
2018-03-02T03:28:08.962Z,40.38
2018-03-02T03:30:40.820Z,40.17
2018-03-02T03:33:11.913Z,40.20
2018-03-02T03:35:44.041Z,40.46
2018-03-02T03:38:15.201Z,40.66
2018-03-02T03:40:46.647Z,40.78
2018-03-02T03:43:21.498Z,40.83
2018-03-02T03:45:52.203Z,40.76
2018-03-02T03:48:22.924Z,40.80
2018-03-02T03:50:55.418Z,40.76
2018-03-02T03:56:09.088Z,40.76
2018-03-02T03:58:40.141Z,40.78
2018-03-02T04:01:11.580Z,41.15
2018-03-02T04:03:42.657Z,40.94
2018-03-02T04:06:14.450Z,40.91
2018-03-02T04:08:46.145Z,40.95
2018-03-02T04:11:18.084Z,40.82
2018-03-02T04:13:49.426Z,40.79
2018-03-02T04:16:26.682Z,40.87
2018-03-02T04:18:57.699Z,40.55
2018-03-02T04:21:29.381Z,40.78
2018-03-02T04:24:00.072Z,40.58
2018-03-02T04:26:46.283Z,40.54
2018-03-02T04:29:16.822Z,40.82
2018-03-02T04:31:47.472Z,41.00
2018-03-02T04:34:18.276Z,41.17
2018-03-02T04:36:48.799Z,41.31
2018-03-02T04:39:24.281Z,41.24
2018-03-02T04:41:55.007Z,41.22
2018-03-02T04:44:25.960Z,41.34
2018-03-02T04:47:02.316Z,41.33
2018-03-02T04:49:36.309Z,41.44
2018-03-02T04:52:10.280Z,41.58
2018-03-02T04:54:41.031Z,41.77
2018-03-02T04:57:11.947Z,41.83
2018-03-02T04:59:42.823Z,41.80
2018-03-02T05:02:14.317Z,41.93
2018-03-02T05:04:45.315Z,41.93
2018-03-02T05:07:18.473Z,41.62
2018-03-02T05:12:26.402Z,41.89
2018-03-02T05:15:01.172Z,41.63
2018-03-02T05:17:34.700Z,41.99
2018-03-02T05:20:06.313Z,42.02
2018-03-02T05:22:43.500Z,42.01
2018-03-02T05:25:15.268Z,42.01
2018-03-02T05:27:46.309Z,41.89
2018-03-02T05:30:24.141Z,41.94
2018-03-02T05:32:55.925Z,41.98
2018-03-02T05:35:39.781Z,41.98
2018-03-02T05:38:16.730Z,42.17
2018-03-02T05:41:03.793Z,42.07
2018-03-02T05:43:35.672Z,42.09
2018-03-02T05:46:11.783Z,42.12
2018-03-02T05:48:44.101Z,42.36
2018-03-02T05:51:16.713Z,42.42
2018-03-02T05:53:47.980Z,42.43
2018-03-02T05:56:19.554Z,42.68
2018-03-02T05:58:51.440Z,42.40
2018-03-02T06:01:33.293Z,42.41
2018-03-02T06:04:05.676Z,42.53
2018-03-02T06:06:37.929Z,42.59
2018-03-02T06:09:15.085Z,42.42
2018-03-02T06:11:55.369Z,42.39
2018-03-02T06:14:26.617Z,42.20
2018-03-02T06:16:58.250Z,42.31
2018-03-02T06:19:29.492Z,42.22
2018-03-02T06:22:06.603Z,42.40
2018-03-02T06:24:38.604Z,42.26
2018-03-02T06:27:17.535Z,42.43
2018-03-02T06:29:49.871Z,42.73
2018-03-02T06:32:23.250Z,42.75
2018-03-02T06:34:56.168Z,42.51
2018-03-02T06:37:28.012Z,42.43
2018-03-02T06:39:59.387Z,42.25
2018-03-02T06:42:32.524Z,42.15
2018-03-02T06:45:20.471Z,42.03
2018-03-02T06:47:58.021Z,41.95
2018-03-02T06:50:29.922Z,42.29
2018-03-02T06:53:10.725Z,42.16
2018-03-02T06:58:26.438Z,42.17
2018-03-02T07:00:58.527Z,42.10
2018-03-02T07:03:31.238Z,42.16
2018-03-02T07:06:02.922Z,41.89
2018-03-02T07:08:34.976Z,41.97
2018-03-02T07:11:09.128Z,41.89
2018-03-02T07:13:41.875Z,41.49
2018-03-02T07:16:21.593Z,42.26
2018-03-02T07:18:53.943Z,42.31
2018-03-02T07:21:28.536Z,42.75
2018-03-02T07:24:00.786Z,42.83
2018-03-02T07:29:30.760Z,42.61
2018-03-02T07:32:07.617Z,42.01
2018-03-02T07:34:39.449Z,42.12
2018-03-02T07:37:22.207Z,41.83
2018-03-02T07:39:54.015Z,41.84
2018-03-02T07:42:27.967Z,42.05
2018-03-02T07:47:50.377Z,41.94
2018-03-02T07:50:24.518Z,41.92
2018-03-02T07:52:57.420Z,41.66
2018-03-02T07:55:30.896Z,41.76
2018-03-02T07:58:09.338Z,41.59
2018-03-02T08:00:41.261Z,41.37
2018-03-02T08:03:17.378Z,41.54
2018-03-02T08:05:51.784Z,41.24
2018-03-02T08:08:24.049Z,41.10
2018-03-02T08:10:55.248Z,41.15
2018-03-02T08:13:31.427Z,41.05
2018-03-02T08:19:27.681Z,40.46
2018-03-02T08:22:01.068Z,40.54
2018-03-02T08:24:36.849Z,40.58
2018-03-02T08:27:09.336Z,40.62
2018-03-02T08:32:19.408Z,39.69
2018-03-02T08:34:51.419Z,39.10
2018-03-02T08:37:28.813Z,39.33
2018-03-02T08:40:08.595Z,39.15
2018-03-02T08:45:51.290Z,38.94
2018-03-02T08:48:22.849Z,39.21
2018-03-02T08:50:57.033Z,39.02
2018-03-02T08:53:32.586Z,38.66
2018-03-02T08:56:06.505Z,38.90
2018-03-02T08:58:38.419Z,38.51
2018-03-02T09:01:13.200Z,38.46
2018-03-02T09:03:46.092Z,38.38
2018-03-02T09:06:22.265Z,38.21
2018-03-02T09:08:55.235Z,38.33
2018-03-02T09:11:27.114Z,38.04
2018-03-02T09:14:00.807Z,37.70
2018-03-02T09:16:32.924Z,37.46
2018-03-02T09:19:04.859Z,37.15
2018-03-02T09:21:39.575Z,36.82
2018-03-02T09:24:15.639Z,36.93
2018-03-02T09:26:47.260Z,36.88
2018-03-02T09:29:28.599Z,36.72
2018-03-02T09:32:00.206Z,36.88
2018-03-02T09:34:35.003Z,36.58
2018-03-02T09:37:25.082Z,36.42
2018-03-02T09:39:57.894Z,36.15
2018-03-02T09:42:29.779Z,36.04
2018-03-02T09:45:03.790Z,35.99
2018-03-02T09:47:36.025Z,35.91
2018-03-02T09:50:07.601Z,36.02
2018-03-02T09:52:40.861Z,35.95
2018-03-02T09:55:12.345Z,35.85
2018-03-02T09:57:43.347Z,35.68
2018-03-02T10:00:20.905Z,35.52
2018-03-02T10:02:54.009Z,35.45
2018-03-02T10:05:36.100Z,35.74
2018-03-02T10:08:19.054Z,35.31
2018-03-02T10:10:50.593Z,35.42
2018-03-02T10:13:23.320Z,34.94
2018-03-02T10:15:55.771Z,35.03
2018-03-02T10:18:27.469Z,34.59
2018-03-02T10:21:01.485Z,34.85
2018-03-02T10:23:34.686Z,34.56
2018-03-02T10:26:06.207Z,34.82
2018-03-02T10:28:37.636Z,34.89
2018-03-02T10:31:10.539Z,35.16
2018-03-02T10:33:42.063Z,35.30
2018-03-02T10:36:13.391Z,35.19
2018-03-02T10:38:44.917Z,34.95
2018-03-02T10:41:16.772Z,34.60
2018-03-02T10:43:49.153Z,34.24
2018-03-02T10:46:22.454Z,34.22
2018-03-02T10:49:04.501Z,33.78
2018-03-02T10:51:36.324Z,34.20
2018-03-02T10:54:09.329Z,34.16
2018-03-02T10:56:42.087Z,33.81
2018-03-02T10:59:14.418Z,33.81
2018-03-02T11:01:55.857Z,33.71
2018-03-02T11:04:33.286Z,33.64
2018-03-02T11:07:06.142Z,33.99
2018-03-02T11:12:14.279Z,33.86
2018-03-02T11:14:53.684Z,33.94
2018-03-02T11:17:26.746Z,33.38
2018-03-02T11:19:57.531Z,33.82
2018-03-02T11:22:31.970Z,33.66
2018-03-02T11:25:06.913Z,33.19
2018-03-02T11:27:51.280Z,32.98
2018-03-02T11:30:28.120Z,32.81
2018-03-02T11:33:02.181Z,32.61
2018-03-02T11:35:36.986Z,32.77
2018-03-02T11:38:09.334Z,32.64
2018-03-02T11:40:40.312Z,32.44
2018-03-02T11:43:11.629Z,32.34
2018-03-02T11:45:45.486Z,32.14
2018-03-02T11:48:17.345Z,32.08
2018-03-02T11:50:59.374Z,32.50
2018-03-02T11:53:30.655Z,32.15
2018-03-02T11:56:03.610Z,31.64
2018-03-02T11:58:36.573Z,31.60
2018-03-02T12:01:08.638Z,31.39
2018-03-02T12:03:41.254Z,31.50
2018-03-02T12:06:23.892Z,31.36
2018-03-02T12:09:00.735Z,31.08
2018-03-02T12:11:36.015Z,31.04
2018-03-02T12:14:07.182Z,31.18
2018-03-02T12:16:39.276Z,31.10
2018-03-02T12:19:14.245Z,30.52
2018-03-02T12:21:47.440Z,30.82
2018-03-02T12:24:19.704Z,30.12
2018-03-02T12:26:52.508Z,30.30
2018-03-02T12:29:42.543Z,30.51
2018-03-02T12:32:22.174Z,30.72
2018-03-02T12:34:55.857Z,30.61
2018-03-02T12:37:35.028Z,30.83
2018-03-02T12:40:08.048Z,30.66
2018-03-02T12:42:39.623Z,30.42
2018-03-02T12:45:17.342Z,30.54
2018-03-02T12:47:49.167Z,30.39
2018-03-02T12:50:21.273Z,30.29
2018-03-02T12:52:54.717Z,29.88
2018-03-02T12:55:31.824Z,30.00
2018-03-02T12:58:08.582Z,29.72
2018-03-02T13:00:45.854Z,29.78
2018-03-02T13:03:17.802Z,29.88
2018-03-02T13:05:48.996Z,29.92
2018-03-02T13:08:30.374Z,29.48
2018-03-02T13:11:01.686Z,29.50
2018-03-02T13:13:37.006Z,29.56
2018-03-02T13:16:09.315Z,29.94
2018-03-02T13:21:09.880Z,29.08
2018-03-02T13:23:41.229Z,29.45
2018-03-02T13:26:18.625Z,29.25
2018-03-02T13:28:53.046Z,29.13
2018-03-02T13:31:31.479Z,29.26
2018-03-02T13:34:13.901Z,29.19
2018-03-02T13:36:45.624Z,29.15
2018-03-02T13:39:21.081Z,28.90
2018-03-02T13:42:11.402Z,29.06
2018-03-02T13:44:43.548Z,28.76
2018-03-02T13:47:30.920Z,28.97
2018-03-02T13:50:09.922Z,29.11
2018-03-02T13:52:41.335Z,29.16
2018-03-02T13:55:13.704Z,29.21
2018-03-02T13:57:55.603Z,29.25
2018-03-02T14:00:30.437Z,29.63
2018-03-02T14:03:28.252Z,29.64
2018-03-02T14:06:06.943Z,29.72
2018-03-02T14:08:43.137Z,29.58
2018-03-02T14:11:29.054Z,29.65
2018-03-02T14:14:02.448Z,29.70
2018-03-02T14:16:35.852Z,29.49
2018-03-02T14:19:08.016Z,29.68
2018-03-02T14:21:39.972Z,29.65
2018-03-02T14:24:13.713Z,29.78
2018-03-02T14:26:45.506Z,29.73
2018-03-02T14:29:27.036Z,29.58
2018-03-02T14:34:48.801Z,29.54
2018-03-02T14:37:20.422Z,29.59
2018-03-02T14:42:52.441Z,29.39
2018-03-02T14:45:24.836Z,29.49
2018-03-02T14:47:56.278Z,29.44
2018-03-02T14:50:27.451Z,29.59
2018-03-02T14:57:22.198Z,29.55
2018-03-02T14:59:53.443Z,30.22
2018-03-02T15:02:35.491Z,30.12
2018-03-02T15:05:06.776Z,29.92
2018-03-02T15:07:47.195Z,29.79
2018-03-02T15:10:21.069Z,29.73
2018-03-02T15:12:54.167Z,29.67
2018-03-02T15:15:26.358Z,29.88
2018-03-02T15:18:03.531Z,29.80
2018-03-02T15:20:38.783Z,29.74
2018-03-02T15:23:10.219Z,29.63
2018-03-02T15:26:00.332Z,29.82
2018-03-02T15:28:41.237Z,29.76
2018-03-02T15:31:13.183Z,29.81
2018-03-02T15:33:48.849Z,29.88
2018-03-02T15:36:33.949Z,29.68
2018-03-02T15:39:06.967Z,29.91
2018-03-02T15:41:39.196Z,30.00
2018-03-02T15:49:57.613Z,29.75
2018-03-02T15:57:19.338Z,30.78
2018-03-02T16:02:34.986Z,30.77
2018-03-02T16:05:09.171Z,30.73
2018-03-02T16:07:58.291Z,30.83
2018-03-02T16:10:30.794Z,30.86
2018-03-02T16:13:11.080Z,30.99
2018-03-02T16:15:57.664Z,31.08
2018-03-02T16:18:48.167Z,31.26
2018-03-02T16:21:23.209Z,31.27
2018-03-02T16:24:04.898Z,31.38
2018-03-02T16:26:37.759Z,31.20
2018-03-02T16:29:09.687Z,31.29
2018-03-02T16:31:55.971Z,31.29
2018-03-02T16:34:41.580Z,31.51
2018-03-02T16:37:12.860Z,31.48
2018-03-02T16:39:45.525Z,31.67
2018-03-02T16:42:23.139Z,31.43
2018-03-02T16:44:58.430Z,31.43
2018-03-02T16:47:30.849Z,31.38
2018-03-02T16:50:02.202Z,31.39
2018-03-02T16:52:40.159Z,31.45
2018-03-02T16:55:11.832Z,31.36
2018-03-02T16:57:44.692Z,31.49
2018-03-02T17:00:19.930Z,31.36
2018-03-02T17:02:51.029Z,31.57
2018-03-02T17:05:30.993Z,31.68
2018-03-02T17:08:09.998Z,31.64
2018-03-02T17:10:45.244Z,31.47
2018-03-02T17:13:19.476Z,31.48
2018-03-02T17:15:59.005Z,31.51
2018-03-02T17:21:23.264Z,31.17
2018-03-02T17:24:02.087Z,30.93
2018-03-02T17:26:56.548Z,31.10
2018-03-02T17:29:27.739Z,31.54
2018-03-02T17:31:59.939Z,31.38
2018-03-02T17:34:43.089Z,31.20
2018-03-02T17:37:14.826Z,30.98
2018-03-02T17:39:46.076Z,32.17
2018-03-02T17:45:07.899Z,33.09
2018-03-02T17:47:40.320Z,33.50
2018-03-02T17:50:12.034Z,34.13
2018-03-02T17:52:48.989Z,33.26
2018-03-02T17:58:14.013Z,32.61
2018-03-02T18:00:45.856Z,32.63
2018-03-02T18:03:20.982Z,32.51
2018-03-02T18:05:52.682Z,32.82
2018-03-02T18:08:24.777Z,34.87
2018-03-02T18:10:59.873Z,34.18
2018-03-02T18:16:43.018Z,34.07
2018-03-02T18:19:23.992Z,33.91
2018-03-02T18:22:02.779Z,33.57
2018-03-02T18:24:38.069Z,33.68
2018-03-02T18:27:10.164Z,33.94
2018-03-02T18:29:54.051Z,34.71
2018-03-02T18:32:25.694Z,35.27
2018-03-02T18:34:57.592Z,35.35
2018-03-02T18:37:30.630Z,36.30
2018-03-02T18:40:11.172Z,37.14
2018-03-02T18:42:43.847Z,37.34
2018-03-02T18:51:18.548Z,37.39
2018-03-02T18:59:18.911Z,44.22
2018-03-02T19:01:52.890Z,45.40
2018-03-02T19:04:23.898Z,46.53
2018-03-02T19:06:55.501Z,46.59
2018-03-02T19:09:28.212Z,47.56
2018-03-02T19:12:09.386Z,47.56
2018-03-02T19:14:42.374Z,47.37
2018-03-02T19:17:36.940Z,46.76
2018-03-02T19:20:09.517Z,47.03
2018-03-02T19:22:41.711Z,46.49
2018-03-02T19:28:02.081Z,45.65
2018-03-02T19:30:35.929Z,45.40
2018-03-02T19:33:09.658Z,44.92
2018-03-02T19:35:47.555Z,44.26
2018-03-02T19:38:25.654Z,43.95
2018-03-02T19:41:04.856Z,45.01
2018-03-02T19:43:40.187Z,45.22
2018-03-02T19:46:15.262Z,45.97
2018-03-02T19:48:51.195Z,46.16
2018-03-02T19:51:24.614Z,47.13
2018-03-02T19:53:57.748Z,45.78
2018-03-02T19:56:29.050Z,45.69
2018-03-02T19:59:00.973Z,46.67
2018-03-02T20:01:38.617Z,46.13
2018-03-02T20:04:09.950Z,45.54
2018-03-02T20:06:50.084Z,45.28
2018-03-02T20:09:24.154Z,45.57
2018-03-02T20:11:56.843Z,46.13
2018-03-02T20:14:28.605Z,45.41
2018-03-02T20:17:10.263Z,46.28
2018-03-02T20:19:49.458Z,46.45
2018-03-02T20:22:30.411Z,45.72
2018-03-02T20:25:02.905Z,46.22
2018-03-02T20:27:49.475Z,46.38
2018-03-02T20:30:26.340Z,46.83
2018-03-02T20:32:58.950Z,47.07
2018-03-02T20:35:30.588Z,47.66
2018-03-02T20:38:02.081Z,48.09
2018-03-02T20:40:35.340Z,49.14
2018-03-02T20:43:08.069Z,49.40
2018-03-02T20:52:28.126Z,51.83
2018-03-02T20:55:24.609Z,52.28
2018-03-02T20:58:00.876Z,53.60
2018-03-02T21:00:39.281Z,53.38
2018-03-02T21:03:38.439Z,55.50
2018-03-02T21:06:10.353Z,55.27
2018-03-02T21:08:44.158Z,55.12
2018-03-02T21:11:24.441Z,55.84
2018-03-02T21:14:04.765Z,56.06
2018-03-02T21:16:37.658Z,57.95
2018-03-02T21:19:12.776Z,57.44
2018-03-02T21:21:43.742Z,57.80
2018-03-02T21:24:18.321Z,58.75
2018-03-02T21:26:49.308Z,60.36
2018-03-02T21:29:20.827Z,60.95
2018-03-02T21:31:53.854Z,61.71
2018-03-02T21:37:34.786Z,62.16
2018-03-02T21:40:06.408Z,62.49
2018-03-02T21:42:41.621Z,62.79
2018-03-02T21:45:55.747Z,63.19
2018-03-02T21:48:27.645Z,62.86
2018-03-02T21:51:24.980Z,62.90
2018-03-02T21:53:57.133Z,63.51
2018-03-02T21:56:29.660Z,63.79
2018-03-02T21:59:02.015Z,63.81
2018-03-02T22:01:33.806Z,64.06
2018-03-02T22:04:05.115Z,64.08
2018-03-02T22:06:36.650Z,64.45
2018-03-02T22:09:10.285Z,65.19
2018-03-02T22:11:51.127Z,65.09
2018-03-02T22:14:22.734Z,65.34
2018-03-02T22:16:54.304Z,65.09
2018-03-02T22:19:26.418Z,65.55
2018-03-02T22:21:58.063Z,65.35
2018-03-02T22:24:30.205Z,66.13
2018-03-02T22:27:01.311Z,65.91
2018-03-02T22:29:33.369Z,65.98
2018-03-02T22:32:04.774Z,66.01
2018-03-02T22:34:36.910Z,66.06
2018-03-02T22:37:09.697Z,66.14
2018-03-02T22:39:40.949Z,66.00
2018-03-02T22:42:12.315Z,65.80
2018-03-02T22:44:43.468Z,65.68
2018-03-02T22:47:16.266Z,65.42
2018-03-02T22:49:49.526Z,65.75
2018-03-02T22:52:22.153Z,65.69
2018-03-02T22:54:57.886Z,65.70
2018-03-02T22:57:28.787Z,65.77
2018-03-02T23:00:00.339Z,65.78
2018-03-02T23:02:32.307Z,66.09
2018-03-02T23:05:09.278Z,66.04
2018-03-02T23:07:40.489Z,65.89
2018-03-02T23:10:11.372Z,66.30
2018-03-02T23:12:42.249Z,66.24
2018-03-02T23:15:18.276Z,66.10
2018-03-02T23:17:52.551Z,65.57
2018-03-02T23:20:23.978Z,65.76
2018-03-02T23:22:55.405Z,65.75
2018-03-02T23:25:30.509Z,65.88
2018-03-02T23:28:02.606Z,65.89
2018-03-02T23:30:33.874Z,65.87
2018-03-02T23:33:06.161Z,65.92
2018-03-02T23:36:07.985Z,66.31
2018-03-02T23:38:39.156Z,66.29
2018-03-02T23:41:10.444Z,66.19
2018-03-02T23:43:41.636Z,65.59
2018-03-02T23:46:20.281Z,66.18
2018-03-02T23:48:51.276Z,66.49
2018-03-02T23:51:22.505Z,66.43
2018-03-02T23:53:53.901Z,66.57
2018-03-02T23:56:27.412Z,66.67
2018-03-02T23:58:58.604Z,65.81
